Time;durP1;ratioP1;P1;durP2;ratioP2;P2;SDS_P1;SDS_P2;PMS_P1;PMS_P2;Temp;Humidity;BMP_temperature;BMP_pressure;BME280_temperature;BME280_humidity;BME280_pressure;Samples;Min_cycle;Max_cycle;Signal;HPM_P1;HPM_P2
2021/04/07 00:00:12;;;;;;;2.53;1.13;;;20.20;38.10;;;;;;5027280;28;20424;-71
2021/04/07 00:02:38;;;;;;;2.67;1.20;;;20.20;38.00;;;;;;5027675;28;20466;-71
2021/04/07 00:05:07;;;;;;;2.58;1.60;;;20.20;38.10;;;;;;5025874;28;20406;-71
2021/04/07 00:07:33;;;;;;;3.88;1.67;;;20.20;38.00;;;;;;5027120;28;20423;-71
2021/04/07 00:10:00;;;;;;;4.78;1.70;;;20.20;38.10;;;;;;5014641;28;20427;-70
2021/04/07 00:12:26;;;;;;;4.30;1.60;;;20.20;38.40;;;;;;5009757;28;20412;-71
2021/04/07 00:14:53;;;;;;;3.40;1.50;;;20.30;38.20;;;;;;5019149;28;20425;-72
2021/04/07 00:17:19;;;;;;;2.92;1.58;;;20.30;38.30;;;;;;5033561;28;20983;-73
2021/04/07 00:19:45;;;;;;;3.08;1.15;;;20.30;38.20;;;;;;5015211;28;20935;-71
2021/04/07 00:22:11;;;;;;;2.45;1.20;;;20.30;38.70;;;;;;5022815;28;20424;-73
2021/04/07 00:24:38;;;;;;;3.25;1.40;;;20.30;38.10;;;;;;5028160;28;20421;-71
2021/04/07 00:27:09;;;;;;;3.30;1.40;;;20.30;38.90;;;;;;5024255;28;20901;-72
2021/04/07 00:29:35;;;;;;;4.05;1.23;;;20.20;38.10;;;;;;5021664;28;20462;-71
2021/04/07 00:32:02;;;;;;;3.50;1.50;;;20.20;38.10;;;;;;5024737;28;20419;-72
2021/04/07 00:34:28;;;;;;;3.10;1.20;;;20.20;38.00;;;;;;5023895;28;20801;-71
2021/04/07 00:36:54;;;;;;;3.65;1.40;;;20.20;38.10;;;;;;5024363;28;20760;-72
2021/04/07 00:39:20;;;;;;;2.42;1.00;;;20.20;38.10;;;;;;5018256;28;21070;-72
2021/04/07 00:41:46;;;;;;;2.23;1.40;;;20.20;38.00;;;;;;5024181;28;20926;-71
2021/04/07 00:44:12;;;;;;;3.03;1.20;;;20.20;38.10;;;;;;5019529;28;20416;-73
2021/04/07 00:46:39;;;;;;;3.50;1.80;;;20.20;38.00;;;;;;5035250;28;20405;-73
2021/04/07 00:49:05;;;;;;;2.40;1.35;;;20.20;38.10;;;;;;5024293;28;20422;-76
2021/04/07 00:51:32;;;;;;;5.22;1.45;;;20.20;38.10;;;;;;5019957;28;20491;-70
2021/04/07 00:53:58;;;;;;;2.95;1.05;;;20.20;38.00;;;;;;5025075;28;20422;-70
2021/04/07 00:56:25;;;;;;;3.50;1.10;;;20.20;38.00;;;;;;5022818;28;21427;-72
2021/04/07 00:58:51;;;;;;;3.80;1.50;;;20.10;37.90;;;;;;5023041;28;20420;-72
2021/04/07 01:01:17;;;;;;;2.92;1.30;;;20.10;37.90;;;;;;5021606;28;20417;-69
2021/04/07 01:03:43;;;;;;;3.20;1.50;;;20.10;38.00;;;;;;5022719;28;20409;-70
2021/04/07 01:06:10;;;;;;;2.65;1.13;;;20.20;38.00;;;;;;5022931;28;20421;-71
2021/04/07 01:08:36;;;;;;;4.32;1.40;;;20.10;38.00;;;;;;5032240;28;20429;-71
2021/04/07 01:11:02;;;;;;;3.55;1.20;;;20.20;38.10;;;;;;5022117;28;20413;-73
2021/04/07 01:13:28;;;;;;;2.70;1.33;;;20.20;38.90;;;;;;5016571;28;20414;-72
2021/04/07 01:15:55;;;;;;;2.90;1.08;;;20.20;38.00;;;;;;5020393;28;20418;-73
2021/04/07 01:18:21;;;;;;;2.92;1.30;;;20.20;38.10;;;;;;5024164;28;21048;-73
2021/04/07 01:20:48;;;;;;;2.63;1.10;;;20.20;38.10;;;;;;5023433;28;20412;-72
2021/04/07 01:23:15;;;;;;;2.70;1.20;;;20.20;38.10;;;;;;5024134;28;20417;-73
2021/04/07 01:25:42;;;;;;;2.60;1.10;;;20.20;38.10;;;;;;5023847;28;20493;-72
2021/04/07 01:28:08;;;;;;;3.55;1.15;;;20.20;38.10;;;;;;5023204;28;20970;-74
2021/04/07 01:30:45;;;;;;;2.95;1.20;;;20.20;38.10;;;;;;5022132;28;20447;-72
2021/04/07 01:33:18;;;;;;;5.05;1.50;;;20.20;38.00;;;;;;5021970;28;20423;-73
2021/04/07 01:35:44;;;;;;;3.80;1.33;;;20.20;38.00;;;;;;5023431;28;20948;-75
2021/04/07 01:38:10;;;;;;;2.80;1.27;;;20.20;38.00;;;;;;5020983;28;20433;-72
2021/04/07 01:40:36;;;;;;;3.22;1.50;;;20.20;38.10;;;;;;5024001;28;20434;-73
2021/04/07 01:43:04;;;;;;;4.57;1.30;;;20.20;38.00;;;;;;5024061;28;20502;-73
2021/04/07 01:45:30;;;;;;;3.25;1.27;;;20.20;38.00;;;;;;5023406;28;20484;-73
2021/04/07 01:47:56;;;;;;;3.67;1.10;;;20.30;38.20;;;;;;5023636;28;20924;-70
2021/04/07 01:50:22;;;;;;;3.80;1.30;;;20.30;38.20;;;;;;5027813;28;20415;-71
2021/04/07 01:52:48;;;;;;;3.45;1.10;;;20.30;38.10;;;;;;5028626;28;20429;-72
2021/04/07 01:55:15;;;;;;;5.18;1.50;;;20.30;38.20;;;;;;5025663;28;20412;-71
2021/04/07 01:57:41;;;;;;;3.90;1.40;;;20.30;38.20;;;;;;5020145;28;20421;-72
2021/04/07 02:00:10;;;;;;;2.33;1.00;;;20.30;38.10;;;;;;5037950;28;20430;-71
2021/04/07 02:02:36;;;;;;;5.22;1.50;;;20.30;38.10;;;;;;5022144;28;20420;-73
2021/04/07 02:05:03;;;;;;;3.88;1.27;;;20.20;38.10;;;;;;5015224;28;20420;-71
2021/04/07 02:07:29;;;;;;;5.20;1.30;;;20.20;38.10;;;;;;5023185;28;20440;-72
2021/04/07 02:09:55;;;;;;;5.10;1.40;;;20.20;38.00;;;;;;5022668;28;20444;-72
2021/04/07 02:12:21;;;;;;;1.88;1.30;;;20.20;38.10;;;;;;5026229;28;20785;-72
2021/04/07 02:14:47;;;;;;;2.03;1.20;;;20.20;38.10;;;;;;5027796;28;20805;-71
2021/04/07 02:17:14;;;;;;;2.20;1.00;;;20.10;38.00;;;;;;5027588;28;20447;-71
2021/04/07 02:19:40;;;;;;;2.10;1.40;;;20.10;38.00;;;;;;5027494;28;21212;-72
2021/04/07 02:22:07;;;;;;;4.23;1.37;;;20.10;38.00;;;;;;5026044;28;20426;-71
2021/04/07 02:24:33;;;;;;;3.55;1.48;;;20.10;38.00;;;;;;5030283;28;20455;-72
2021/04/07 02:27:01;;;;;;;5.03;1.42;;;20.10;38.00;;;;;;5023903;28;20411;-73
2021/04/07 02:29:27;;;;;;;2.15;1.33;;;20.20;38.10;;;;;;5023151;28;20413;-70
2021/04/07 02:31:53;;;;;;;3.50;1.60;;;20.20;38.10;;;;;;5026621;28;20426;-71
2021/04/07 02:34:20;;;;;;;2.42;1.40;;;20.20;38.10;;;;;;5022092;28;20900;-71
2021/04/07 02:36:46;;;;;;;3.15;1.00;;;20.20;38.00;;;;;;4991738;28;20411;-70
2021/04/07 02:39:12;;;;;;;1.73;1.23;;;20.20;38.10;;;;;;5024653;28;20417;-73
2021/04/07 02:41:39;;;;;;;1.90;1.10;;;20.20;38.00;;;;;;5030363;28;20423;-72
2021/04/07 02:44:05;;;;;;;3.00;1.10;;;20.20;38.10;;;;;;5029252;28;20407;-73
2021/04/07 02:46:31;;;;;;;3.70;1.00;;;20.20;38.10;;;;;;5024189;28;20409;-72
2021/04/07 02:48:57;;;;;;;2.70;1.00;;;20.10;38.00;;;;;;5026282;28;20413;-72
2021/04/07 02:51:24;;;;;;;4.57;1.30;;;20.10;37.90;;;;;;5026485;28;20421;-71
2021/04/07 02:53:50;;;;;;;2.22;1.10;;;20.10;38.80;;;;;;5023919;28;20419;-72
2021/04/07 02:56:17;;;;;;;5.72;1.60;;;20.10;37.90;;;;;;5027528;28;20975;-70
2021/04/07 02:58:43;;;;;;;5.10;1.40;;;20.10;38.00;;;;;;5028247;28;20433;-69
2021/04/07 03:01:09;;;;;;;6.33;1.50;;;20.10;37.90;;;;;;5010871;28;20406;-70
2021/04/07 03:03:35;;;;;;;3.22;1.50;;;20.10;37.90;;;;;;5028210;28;20425;-71
2021/04/07 03:06:01;;;;;;;5.90;1.20;;;20.10;38.00;;;;;;5017738;28;20427;-72
2021/04/07 03:08:28;;;;;;;2.22;1.30;;;20.10;38.00;;;;;;5030555;28;20425;-70
2021/04/07 03:10:54;;;;;;;3.58;1.20;;;20.10;37.90;;;;;;5025478;28;20414;-73
2021/04/07 03:13:20;;;;;;;5.00;1.70;;;20.10;37.90;;;;;;5024528;28;20436;-72
2021/04/07 03:15:47;;;;;;;2.70;1.20;;;20.10;38.00;;;;;;5022854;28;20410;-73
2021/04/07 03:18:13;;;;;;;3.78;1.10;;;20.20;37.60;;;;;;5028683;28;20402;-73
2021/04/07 03:20:39;;;;;;;3.33;1.20;;;20.30;38.00;;;;;;5022441;28;20434;-73
2021/04/07 03:23:05;;;;;;;4.28;1.48;;;20.30;36.90;;;;;;5019865;28;20464;-74
2021/04/07 03:25:32;;;;;;;3.00;1.80;;;20.40;36.80;;;;;;5037040;28;20431;-74
2021/04/07 03:27:58;;;;;;;2.47;1.30;;;20.40;36.90;;;;;;5011284;28;20421;-72
2021/04/07 03:30:24;;;;;;;5.60;1.60;;;20.40;37.00;;;;;;5025922;28;20421;-73
2021/04/07 03:32:50;;;;;;;4.13;1.20;;;20.40;37.50;;;;;;5034369;28;20415;-73
2021/04/07 03:35:16;;;;;;;4.65;1.40;;;20.40;37.70;;;;;;5026892;28;20418;-72
2021/04/07 03:37:43;;;;;;;2.10;1.20;;;20.30;37.40;;;;;;5026488;28;20410;-70
2021/04/07 03:40:10;;;;;;;3.10;1.25;;;20.30;37.50;;;;;;5019850;28;20430;-71
2021/04/07 03:42:37;;;;;;;4.38;1.20;;;20.30;37.60;;;;;;5019823;28;20503;-71
2021/04/07 03:45:03;;;;;;;5.40;1.50;;;20.30;37.60;;;;;;5031455;28;20490;-71
2021/04/07 03:47:29;;;;;;;2.92;1.50;;;20.30;37.30;;;;;;5026945;28;20428;-71
2021/04/07 03:49:55;;;;;;;4.37;1.30;;;20.30;37.40;;;;;;5024936;28;20500;-71
2021/04/07 03:52:22;;;;;;;4.75;1.30;;;20.30;37.40;;;;;;5027292;28;20431;-72
2021/04/07 03:54:50;;;;;;;2.42;1.00;;;20.20;38.00;;;;;;5032759;28;20411;-71
2021/04/07 03:57:16;;;;;;;4.60;1.13;;;20.30;38.10;;;;;;5022836;28;20448;-73
2021/04/07 03:59:43;;;;;;;3.40;1.48;;;20.20;37.70;;;;;;5037479;28;20452;-70
2021/04/07 04:02:09;;;;;;;3.95;1.40;;;20.30;37.80;;;;;;5018254;28;20426;-70
2021/04/07 04:04:35;;;;;;;4.47;1.30;;;20.30;37.80;;;;;;5023024;28;21008;-69
2021/04/07 04:07:01;;;;;;;2.70;1.30;;;20.30;37.50;;;;;;5010087;28;21435;-69
2021/04/07 04:09:28;;;;;;;4.07;1.20;;;20.30;37.70;;;;;;5020265;28;20538;-72
2021/04/07 04:11:54;;;;;;;3.90;1.35;;;20.30;37.00;;;;;;5026030;28;20835;-72
2021/04/07 04:14:20;;;;;;;3.58;1.27;;;20.30;37.80;;;;;;5022227;28;20405;-71
2021/04/07 04:16:47;;;;;;;3.25;1.15;;;20.30;37.20;;;;;;5022806;28;20425;-73
2021/04/07 04:19:13;;;;;;;6.22;1.60;;;20.30;37.90;;;;;;5017025;28;20419;-70
2021/04/07 04:21:39;;;;;;;1.70;1.15;;;20.30;37.70;;;;;;5025552;28;20409;-69
2021/04/07 04:24:07;;;;;;;4.07;1.30;;;20.30;37.50;;;;;;5024456;28;20434;-71
2021/04/07 04:26:33;;;;;;;4.82;1.00;;;20.30;37.20;;;;;;5009329;28;20424;-71
2021/04/07 04:28:59;;;;;;;3.10;1.50;;;20.30;36.70;;;;;;5032153;28;20422;-72
2021/04/07 04:31:25;;;;;;;3.13;1.40;;;20.30;37.30;;;;;;5015636;28;21154;-73
2021/04/07 04:33:52;;;;;;;2.05;1.23;;;20.30;37.10;;;;;;5016665;28;20482;-73
2021/04/07 04:36:18;;;;;;;1.80;1.17;;;20.30;36.90;;;;;;5034778;28;20425;-70
2021/04/07 04:38:44;;;;;;;1.77;1.60;;;20.30;37.30;;;;;;5017191;28;20418;-70
2021/04/07 04:41:11;;;;;;;4.20;1.90;;;20.30;37.00;;;;;;5032738;28;20423;-72
2021/04/07 04:43:37;;;;;;;3.63;1.30;;;20.40;36.70;;;;;;5024113;28;20419;-71
2021/04/07 04:46:03;;;;;;;6.20;1.58;;;20.50;36.60;;;;;;5023334;28;20488;-71
2021/04/07 04:48:29;;;;;;;5.40;1.50;;;20.50;36.40;;;;;;5023503;28;20419;-71
2021/04/07 04:50:56;;;;;;;3.17;1.40;;;20.50;36.40;;;;;;5022858;28;20489;-73
2021/04/07 04:53:22;;;;;;;2.45;1.23;;;20.50;36.40;;;;;;5008058;28;20483;-70
2021/04/07 04:55:48;;;;;;;5.00;1.60;;;20.50;36.50;;;;;;5027797;28;20430;-70
2021/04/07 04:58:14;;;;;;;3.88;1.60;;;20.40;36.60;;;;;;5015770;28;20423;-71
2021/04/07 05:00:40;;;;;;;2.50;1.40;;;20.40;36.30;;;;;;5020252;28;20437;-71
2021/04/07 05:03:07;;;;;;;5.75;1.33;;;20.40;36.50;;;;;;5026899;28;20430;-71
2021/04/07 05:05:33;;;;;;;3.50;1.40;;;20.40;36.40;;;;;;5023224;28;20421;-71
2021/04/07 05:08:00;;;;;;;3.28;1.40;;;20.40;36.30;;;;;;5008455;28;20426;-72
2021/04/07 05:10:26;;;;;;;1.80;1.00;;;20.40;36.40;;;;;;5037415;28;20447;-75
2021/04/07 05:12:53;;;;;;;5.40;1.10;;;20.40;36.60;;;;;;5031889;28;21022;-72
2021/04/07 05:15:19;;;;;;;4.60;1.20;;;20.40;36.50;;;;;;5023558;28;20471;-71
2021/04/07 05:17:45;;;;;;;3.38;1.48;;;20.40;36.60;;;;;;5025288;28;20424;-71
2021/04/07 05:20:13;;;;;;;3.33;1.33;;;20.40;36.50;;;;;;5021453;28;20423;-72
2021/04/07 05:22:39;;;;;;;4.57;1.50;;;20.40;36.70;;;;;;5024336;28;20454;-72
2021/04/07 05:25:07;;;;;;;4.10;1.40;;;20.40;36.10;;;;;;5017378;28;20432;-73
2021/04/07 05:27:33;;;;;;;3.75;1.30;;;20.40;35.90;;;;;;5035087;28;20829;-73
2021/04/07 05:29:59;;;;;;;3.80;1.10;;;20.40;35.90;;;;;;5024295;28;20434;-74
2021/04/07 05:32:25;;;;;;;5.70;1.63;;;20.40;36.00;;;;;;5021219;28;20552;-73
2021/04/07 05:34:51;;;;;;;2.58;1.20;;;20.40;36.00;;;;;;5011079;28;20426;-72
2021/04/07 05:37:18;;;;;;;4.55;1.27;;;20.40;36.20;;;;;;5022975;28;20409;-70
2021/04/07 05:39:44;;;;;;;5.80;1.63;;;20.40;36.40;;;;;;5025190;28;20919;-71
2021/04/07 05:42:11;;;;;;;2.70;1.35;;;20.50;36.40;;;;;;5017462;28;20429;-72
2021/04/07 05:44:37;;;;;;;4.80;1.50;;;20.50;36.40;;;;;;5021353;28;20415;-71
2021/04/07 05:47:03;;;;;;;3.30;1.10;;;20.50;36.30;;;;;;5023393;28;20411;-70
2021/04/07 05:49:30;;;;;;;1.40;1.00;;;20.50;36.40;;;;;;5023123;28;20470;-70
2021/04/07 05:51:56;;;;;;;1.42;1.10;;;20.50;37.40;;;;;;5019219;28;20418;-73
2021/04/07 05:54:22;;;;;;;3.15;1.50;;;20.50;36.60;;;;;;5018521;28;20418;-73
2021/04/07 05:56:48;;;;;;;2.10;1.30;;;20.50;36.70;;;;;;5019204;28;20428;-75
2021/04/07 05:59:15;;;;;;;3.55;1.27;;;20.50;36.80;;;;;;5017275;28;20429;-71
2021/04/07 06:01:41;;;;;;;5.20;1.30;;;20.50;36.50;;;;;;5020852;28;20563;-72
2021/04/07 06:04:07;;;;;;;2.65;1.40;;;20.50;36.60;;;;;;5023363;28;20454;-71
2021/04/07 06:06:33;;;;;;;3.30;1.08;;;20.50;36.50;;;;;;5017187;28;20435;-71
2021/04/07 06:08:59;;;;;;;2.13;1.25;;;20.50;36.60;;;;;;5036542;28;20417;-71
2021/04/07 06:11:26;;;;;;;2.28;1.42;;;20.50;36.70;;;;;;5021516;28;20423;-72
2021/04/07 06:13:52;;;;;;;3.22;1.08;;;20.50;36.60;;;;;;5018596;28;20473;-69
2021/04/07 06:16:19;;;;;;;1.88;1.20;;;20.50;36.80;;;;;;5022381;28;20516;-74
2021/04/07 06:18:45;;;;;;;2.20;1.30;;;20.50;36.80;;;;;;5015540;28;20560;-72
2021/04/07 06:21:12;;;;;;;2.17;1.10;;;20.40;36.70;;;;;;5010817;28;20431;-74
2021/04/07 06:23:38;;;;;;;2.88;1.40;;;20.40;36.80;;;;;;5026264;28;20510;-71
2021/04/07 06:26:04;;;;;;;1.75;1.08;;;20.40;37.00;;;;;;5031754;28;20416;-71
2021/04/07 06:28:30;;;;;;;3.03;1.10;;;20.40;37.10;;;;;;5024471;28;20428;-72
2021/04/07 06:30:56;;;;;;;2.05;0.93;;;20.40;37.20;;;;;;5025788;28;20435;-71
2021/04/07 06:33:24;;;;;;;3.20;1.10;;;20.40;37.30;;;;;;5023488;28;20417;-70
2021/04/07 06:35:51;;;;;;;5.40;1.30;;;20.40;37.60;;;;;;5021395;28;20414;-70
2021/04/07 06:38:18;;;;;;;1.90;0.90;;;20.40;37.70;;;;;;5023706;28;20435;-70
2021/04/07 06:40:44;;;;;;;1.83;1.00;;;20.40;37.50;;;;;;5021705;28;20429;-71
2021/04/07 06:43:11;;;;;;;1.73;0.93;;;20.40;37.50;;;;;;5025354;28;20772;-73
2021/04/07 06:45:38;;;;;;;1.02;0.93;;;20.40;37.50;;;;;;5026464;28;20403;-70
2021/04/07 06:48:05;;;;;;;2.80;0.90;;;20.40;38.00;;;;;;5024374;28;20417;-70
2021/04/07 06:50:32;;;;;;;2.47;0.90;;;20.30;37.80;;;;;;5019997;28;20422;-72
2021/04/07 06:52:59;;;;;;;1.50;1.20;;;20.30;37.60;;;;;;5021744;28;20577;-71
2021/04/07 06:55:25;;;;;;;1.00;0.88;;;20.30;37.50;;;;;;5002794;28;20779;-74
2021/04/07 06:57:52;;;;;;;3.30;1.20;;;20.30;37.60;;;;;;5002015;28;20509;-75
2021/04/07 07:00:19;;;;;;;1.90;0.90;;;20.30;37.70;;;;;;5024249;28;20439;-72
2021/04/07 07:02:45;;;;;;;1.35;1.13;;;20.30;37.50;;;;;;5026402;28;20426;-72
2021/04/07 07:05:12;;;;;;;2.70;0.98;;;20.30;37.70;;;;;;5018531;28;20605;-71
2021/04/07 07:07:39;;;;;;;1.50;1.00;;;20.30;37.70;;;;;;5016641;28;20406;-70
2021/04/07 07:10:06;;;;;;;4.00;1.30;;;20.30;37.70;;;;;;5032090;28;20805;-72
2021/04/07 07:12:32;;;;;;;2.17;1.08;;;20.30;37.70;;;;;;5032187;28;20455;-73
2021/04/07 07:15:01;;;;;;;3.00;0.80;;;20.30;37.90;;;;;;5023752;28;21485;-71
2021/04/07 07:17:27;;;;;;;1.50;1.00;;;20.30;38.00;;;;;;5011868;28;20467;-72
2021/04/07 07:19:54;;;;;;;3.28;1.42;;;20.30;38.10;;;;;;5019776;28;20467;-72
2021/04/07 07:22:24;;;;;;;1.10;0.80;;;20.30;38.10;;;;;;5025921;28;20513;-71
2021/04/07 07:24:55;;;;;;;2.10;0.90;;;20.30;38.20;;;;;;5011352;28;20418;-72
2021/04/07 07:27:33;;;;;;;2.40;1.10;;;20.30;38.10;;;;;;5035927;28;20416;-73
2021/04/07 07:30:00;;;;;;;2.10;1.00;;;20.30;38.20;;;;;;5014010;28;20421;-75
2021/04/07 07:32:32;;;;;;;1.60;0.90;;;20.30;38.20;;;;;;5028248;28;20424;-70
2021/04/07 07:35:11;;;;;;;1.00;0.80;;;20.30;38.10;;;;;;5003630;28;20468;-70
2021/04/07 07:37:37;;;;;;;1.52;0.90;;;20.30;38.10;;;;;;5017787;28;20417;-74
2021/04/07 07:40:05;;;;;;;2.33;1.08;;;20.30;38.20;;;;;;5005963;28;20481;-72
2021/04/07 07:42:32;;;;;;;2.30;1.00;;;20.30;38.10;;;;;;5020620;28;20513;-71
2021/04/07 07:44:58;;;;;;;2.85;0.75;;;20.30;38.20;;;;;;5017850;28;20483;-71
2021/04/07 07:47:27;;;;;;;2.90;0.80;;;20.30;38.20;;;;;;5013714;28;20417;-72
2021/04/07 07:49:54;;;;;;;3.20;0.80;;;20.20;38.00;;;;;;5027147;28;20558;-72
2021/04/07 07:52:30;;;;;;;1.70;0.80;;;20.30;38.10;;;;;;5021904;28;20436;-73
2021/04/07 07:54:57;;;;;;;1.20;0.90;;;20.30;38.20;;;;;;5019455;28;20444;-73
2021/04/07 07:57:24;;;;;;;2.23;1.00;;;20.30;38.10;;;;;;5019679;28;20421;-71
2021/04/07 07:59:51;;;;;;;1.20;1.00;;;20.30;38.20;;;;;;5024547;28;20439;-72
2021/04/07 08:02:19;;;;;;;1.20;0.80;;;20.30;38.20;;;;;;5009992;28;20441;-73
2021/04/07 08:04:46;;;;;;;0.88;0.80;;;20.40;38.20;;;;;;5020689;28;20411;-77
2021/04/07 08:07:14;;;;;;;2.20;1.00;;;20.40;38.20;;;;;;4998856;28;20461;-71
2021/04/07 08:09:40;;;;;;;2.00;0.70;;;20.40;38.20;;;;;;5023201;28;20462;-73
2021/04/07 08:12:07;;;;;;;1.20;1.00;;;20.40;38.20;;;;;;5026263;28;20518;-70
2021/04/07 08:14:34;;;;;;;1.23;0.90;;;20.40;38.20;;;;;;5018913;28;21180;-70
2021/04/07 08:17:00;;;;;;;1.67;0.85;;;20.40;38.20;;;;;;5018343;28;20433;-70
2021/04/07 08:19:26;;;;;;;1.15;0.63;;;20.30;38.20;;;;;;5017656;28;20854;-71
2021/04/07 08:21:53;;;;;;;1.33;0.80;;;20.30;38.20;;;;;;5021249;28;20426;-70
2021/04/07 08:24:19;;;;;;;1.33;0.70;;;20.30;38.20;;;;;;5021666;28;20937;-71
2021/04/07 08:26:45;;;;;;;2.35;0.80;;;20.30;38.10;;;;;;5011731;28;20431;-71
2021/04/07 08:29:11;;;;;;;0.95;0.90;;;20.30;39.00;;;;;;5010633;28;20477;-70
2021/04/07 08:31:39;;;;;;;1.55;0.95;;;20.40;38.20;;;;;;5030600;28;20419;-70
2021/04/07 08:34:06;;;;;;;1.92;0.80;;;20.40;38.20;;;;;;5014848;28;21529;-72
2021/04/07 08:36:32;;;;;;;0.57;0.57;;;20.50;38.30;;;;;;5020354;28;20419;-69
2021/04/07 08:38:59;;;;;;;1.20;0.80;;;20.50;38.30;;;;;;5018298;28;20460;-69
2021/04/07 08:41:26;;;;;;;2.30;0.88;;;20.50;38.30;;;;;;5012707;28;20411;-73
2021/04/07 08:43:52;;;;;;;0.90;0.70;;;20.50;38.10;;;;;;5017241;28;20411;-70
2021/04/07 08:46:22;;;;;;;2.33;1.00;;;20.50;38.10;;;;;;5011842;28;20473;-71
2021/04/07 08:48:49;;;;;;;3.42;1.20;;;20.50;38.20;;;;;;5013786;28;20477;-73
2021/04/07 08:51:17;;;;;;;2.43;1.30;;;20.50;38.30;;;;;;5017874;28;20422;-70
2021/04/07 08:53:45;;;;;;;2.13;0.90;;;20.50;38.30;;;;;;5022829;28;20994;-71
2021/04/07 08:56:12;;;;;;;1.30;0.60;;;20.50;38.30;;;;;;5021814;28;21306;-72
2021/04/07 08:58:57;;;;;;;1.70;0.70;;;20.50;38.30;;;;;;4997581;28;20479;-69
2021/04/07 09:01:24;;;;;;;2.00;0.80;;;20.50;38.30;;;;;;5018912;28;20464;-70
2021/04/07 09:03:51;;;;;;;0.93;0.75;;;20.40;38.30;;;;;;5019537;28;20514;-73
2021/04/07 09:06:17;;;;;;;1.40;0.98;;;20.40;38.20;;;;;;5022659;28;20421;-72
2021/04/07 09:08:54;;;;;;;1.00;0.90;;;20.40;38.20;;;;;;5012024;28;20512;-74
2021/04/07 09:11:32;;;;;;;1.90;0.93;;;20.40;38.20;;;;;;5023776;28;20951;-72
2021/04/07 09:14:01;;;;;;;2.33;0.70;;;20.40;38.20;;;;;;5020970;28;20463;-72
2021/04/07 09:16:35;;;;;;;1.67;1.00;;;20.50;38.20;;;;;;5033980;28;20440;-72
2021/04/07 09:19:16;;;;;;;0.88;0.65;;;20.50;38.10;;;;;;5025237;28;20496;-73
2021/04/07 09:21:53;;;;;;;1.20;0.60;;;20.50;38.10;;;;;;5012806;28;20779;-69
2021/04/07 09:24:19;;;;;;;1.27;0.70;;;20.50;38.30;;;;;;5021844;28;20508;-72
2021/04/07 09:26:46;;;;;;;2.72;0.80;;;20.50;38.30;;;;;;5031339;28;20418;-76
2021/04/07 09:29:12;;;;;;;1.90;1.10;;;20.50;38.30;;;;;;5025288;28;20485;-71
2021/04/07 09:31:39;;;;;;;0.70;0.70;;;20.40;38.20;;;;;;5024587;28;20421;-70
2021/04/07 09:34:05;;;;;;;0.80;0.80;;;20.40;38.20;;;;;;5023861;28;20401;-72
2021/04/07 09:36:33;;;;;;;1.50;0.77;;;20.40;38.20;;;;;;5024147;28;21129;-72
2021/04/07 09:39:00;;;;;;;2.50;0.70;;;20.40;38.20;;;;;;5023791;28;20417;-71
2021/04/07 09:41:27;;;;;;;0.90;0.90;;;20.40;38.20;;;;;;5020024;28;20774;-70
2021/04/07 09:43:53;;;;;;;2.90;0.60;;;20.40;38.20;;;;;;5013626;28;20417;-71
2021/04/07 09:46:20;;;;;;;1.40;0.80;;;20.40;38.20;;;;;;5022604;28;20413;-71
2021/04/07 09:48:47;;;;;;;1.40;0.80;;;20.40;38.20;;;;;;5025061;28;20422;-71
2021/04/07 09:51:35;;;;;;;1.80;0.80;;;20.40;38.20;;;;;;5022694;28;20423;-70
2021/04/07 09:54:13;;;;;;;0.90;0.70;;;20.30;38.20;;;;;;5021976;28;20826;-73
2021/04/07 09:56:46;;;;;;;0.50;0.50;;;20.30;38.20;;;;;;5022187;28;20511;-73
2021/04/07 09:59:12;;;;;;;1.20;0.70;;;20.30;38.20;;;;;;5020572;28;20449;-70
2021/04/07 10:01:39;;;;;;;1.40;0.70;;;20.30;38.10;;;;;;5023269;28;20476;-70
2021/04/07 10:04:05;;;;;;;1.50;0.60;;;20.30;38.10;;;;;;5021751;28;20984;-71
2021/04/07 10:06:31;;;;;;;1.27;1.17;;;20.30;38.20;;;;;;5023227;28;20417;-73
2021/04/07 10:09:01;;;;;;;0.70;0.60;;;20.40;38.20;;;;;;5021000;28;20503;-71
2021/04/07 10:11:28;;;;;;;1.67;0.82;;;20.40;38.20;;;;;;4995554;28;20553;-73
2021/04/07 10:13:58;;;;;;;0.70;0.60;;;20.40;38.50;;;;;;5039835;28;20440;-74
2021/04/07 10:16:24;;;;;;;0.50;0.50;;;20.40;38.20;;;;;;5032783;28;20467;-71
2021/04/07 10:18:51;;;;;;;0.70;0.60;;;20.40;38.20;;;;;;5029307;28;20421;-73
2021/04/07 10:21:18;;;;;;;0.95;0.65;;;20.40;38.20;;;;;;5032834;28;20424;-73
2021/04/07 10:23:45;;;;;;;1.10;0.95;;;20.40;38.20;;;;;;5027905;28;20423;-72
2021/04/07 10:26:11;;;;;;;0.90;0.60;;;20.40;38.20;;;;;;5026305;28;20425;-71
2021/04/07 10:28:38;;;;;;;0.65;0.60;;;20.30;38.20;;;;;;5027794;28;20946;-71
2021/04/07 10:31:11;;;;;;;1.20;0.70;;;20.30;38.20;;;;;;5018525;28;20500;-69
2021/04/07 10:33:37;;;;;;;0.70;0.53;;;20.30;38.20;;;;;;5033879;28;20464;-71
2021/04/07 10:36:04;;;;;;;1.00;0.70;;;20.30;38.20;;;;;;5027574;28;21041;-72
2021/04/07 10:38:30;;;;;;;0.80;0.80;;;20.30;38.10;;;;;;5027558;28;20418;-73
2021/04/07 10:41:00;;;;;;;1.00;0.60;;;20.30;38.10;;;;;;5025189;28;20423;-71
2021/04/07 10:43:30;;;;;;;0.90;0.70;;;20.30;38.20;;;;;;5024544;28;20408;-73
2021/04/07 10:45:58;;;;;;;1.80;0.60;;;20.30;38.20;;;;;;5024160;28;20434;-73
2021/04/07 10:48:24;;;;;;;0.80;0.60;;;20.30;38.20;;;;;;5022671;28;20407;-73
2021/04/07 10:50:50;;;;;;;0.77;0.70;;;20.30;38.10;;;;;;5035338;28;20425;-72
2021/04/07 10:53:16;;;;;;;1.60;0.70;;;20.30;38.20;;;;;;5024945;28;20405;-73
2021/04/07 10:55:43;;;;;;;1.70;0.70;;;20.30;38.20;;;;;;5030930;28;20430;-72
2021/04/07 10:58:11;;;;;;;0.60;0.55;;;20.30;38.90;;;;;;5022369;28;21225;-74
2021/04/07 11:00:38;;;;;;;0.88;0.60;;;20.30;38.20;;;;;;5027480;28;20430;-72
2021/04/07 11:03:06;;;;;;;0.90;0.60;;;20.30;38.20;;;;;;5010825;28;20405;-71
2021/04/07 11:05:39;;;;;;;0.70;0.70;;;20.30;38.20;;;;;;5026984;28;20415;-70
2021/04/07 11:08:06;;;;;;;0.80;0.60;;;20.30;38.20;;;;;;5006458;28;20418;-71
2021/04/07 11:10:39;;;;;;;0.80;0.57;;;20.30;38.20;;;;;;5039058;28;20442;-76
2021/04/07 11:13:05;;;;;;;0.60;0.60;;;20.30;38.20;;;;;;5046779;28;20422;-72
2021/04/07 11:15:31;;;;;;;0.40;0.40;;;20.30;38.20;;;;;;5044372;28;20470;-72
2021/04/07 11:17:57;;;;;;;1.10;0.60;;;20.40;38.20;;;;;;5033507;28;20410;-69
2021/04/07 11:20:25;;;;;;;1.00;0.70;;;20.40;38.20;;;;;;5027699;28;20404;-70
2021/04/07 11:22:51;;;;;;;1.25;0.90;;;20.30;38.20;;;;;;5032760;28;20419;-71
2021/04/07 11:25:19;;;;;;;0.90;0.68;;;20.30;39.00;;;;;;5013448;28;21011;-70
2021/04/07 11:27:45;;;;;;;1.10;0.70;;;20.30;38.20;;;;;;5029731;28;20413;-71
2021/04/07 11:30:12;;;;;;;1.00;0.70;;;20.30;38.30;;;;;;5017747;28;20802;-72
2021/04/07 11:32:41;;;;;;;1.10;0.70;;;20.30;38.20;;;;;;5020045;28;20405;-70
2021/04/07 11:35:12;;;;;;;0.80;0.80;;;20.40;38.20;;;;;;5016829;28;20419;-72
2021/04/07 11:37:44;;;;;;;0.70;0.60;;;20.40;38.20;;;;;;5030230;28;20413;-72
2021/04/07 11:40:21;;;;;;;0.90;0.60;;;20.40;38.20;;;;;;5012447;28;20406;-70
2021/04/07 11:42:57;;;;;;;0.75;0.75;;;20.40;38.20;;;;;;5026101;28;20921;-70
2021/04/07 11:45:23;;;;;;;0.70;0.50;;;20.40;38.20;;;;;;5014662;28;20452;-71
2021/04/07 11:47:49;;;;;;;1.60;0.60;;;20.40;38.50;;;;;;5028589;28;20459;-71
2021/04/07 11:50:15;;;;;;;0.60;0.60;;;20.40;38.70;;;;;;5028562;28;20419;-73
2021/04/07 11:52:45;;;;;;;0.90;0.60;;;20.30;38.70;;;;;;5025724;28;20441;-73
2021/04/07 11:55:12;;;;;;;0.60;0.60;;;20.30;38.70;;;;;;5022695;28;20403;-74
2021/04/07 11:57:38;;;;;;;1.15;0.60;;;20.30;38.70;;;;;;5022756;28;20407;-70
2021/04/07 12:00:05;;;;;;;0.65;0.50;;;20.30;39.70;;;;;;5025005;28;20953;-71
2021/04/07 12:02:33;;;;;;;0.60;0.60;;;20.30;38.90;;;;;;5025042;28;20921;-72
2021/04/07 12:04:59;;;;;;;0.70;0.70;;;20.30;39.10;;;;;;5023558;28;20413;-73
2021/04/07 12:07:25;;;;;;;1.00;0.60;;;20.30;39.20;;;;;;5025669;28;21003;-75
2021/04/07 12:09:52;;;;;;;1.00;0.60;;;20.30;39.30;;;;;;5025380;28;20428;-74
2021/04/07 12:12:19;;;;;;;1.20;0.50;;;20.20;39.30;;;;;;5023901;28;20668;-71
2021/04/07 12:14:45;;;;;;;1.00;0.60;;;20.20;39.30;;;;;;5025678;28;20449;-72
2021/04/07 12:17:11;;;;;;;1.85;0.57;;;20.20;39.40;;;;;;5024438;28;20410;-72
2021/04/07 12:19:37;;;;;;;0.60;0.50;;;20.20;40.30;;;;;;5031107;28;20423;-70
2021/04/07 12:22:03;;;;;;;0.70;0.70;;;20.20;39.40;;;;;;5025020;28;20423;-70
2021/04/07 12:24:29;;;;;;;0.80;0.70;;;20.20;39.60;;;;;;5025580;28;20432;-71
2021/04/07 12:26:56;;;;;;;0.60;0.60;;;20.20;39.50;;;;;;5023163;28;20419;-71
2021/04/07 12:29:23;;;;;;;2.20;0.70;;;20.30;39.60;;;;;;5033960;28;20413;-70
2021/04/07 12:31:49;;;;;;;1.80;0.75;;;20.30;39.60;;;;;;5027043;28;20566;-70
2021/04/07 12:34:15;;;;;;;0.68;0.68;;;20.30;39.60;;;;;;5017785;28;20430;-75
2021/04/07 12:36:41;;;;;;;0.80;0.80;;;20.30;39.50;;;;;;5038095;28;21099;-72
2021/04/07 12:39:07;;;;;;;0.60;0.50;;;20.30;39.50;;;;;;5024281;28;20419;-73
2021/04/07 12:41:46;;;;;;;0.68;0.50;;;20.30;39.50;;;;;;5022857;28;20918;-73
2021/04/07 12:44:13;;;;;;;1.70;0.80;;;20.30;39.60;;;;;;5019496;28;20431;-73
2021/04/07 12:46:39;;;;;;;1.00;0.60;;;20.30;39.60;;;;;;5031422;28;20462;-71